sensor_id;sensor_type;location;lat;lon;timestamp;pressure;altitude;pressure_sealevel;temperature;humidity
60583;BME280;46415;47.536;19.066;2023-04-19T00:00:56;-18573.09;;;12.66;57.98
60583;BME280;46415;47.536;19.066;2023-04-19T00:04:00;-18572.12;;;12.62;61.12
60583;BME280;46415;47.536;19.066;2023-04-19T00:07:03;-18571.31;;;12.59;60.76
60583;BME280;46415;47.536;19.066;2023-04-19T00:10:06;-18571.59;;;12.60;63.07
60583;BME280;46415;47.536;19.066;2023-04-19T00:13:09;-18569.81;;;12.54;61.51
60583;BME280;46415;47.536;19.066;2023-04-19T00:16:12;-18568.44;;;12.49;62.26
60583;BME280;46415;47.536;19.066;2023-04-19T00:19:15;-18566.13;;;12.40;61.79
60583;BME280;46415;47.536;19.066;2023-04-19T00:22:19;-18563.13;;;12.29;62.09
60583;BME280;46415;47.536;19.066;2023-04-19T00:25:22;-18560.09;;;12.18;63.71
60583;BME280;46415;47.536;19.066;2023-04-19T00:28:25;-18557.66;;;12.09;64.11
60583;BME280;46415;47.536;19.066;2023-04-19T00:31:28;-18555.47;;;12.01;64.55
60583;BME280;46415;47.536;19.066;2023-04-19T00:34:32;-18554.09;;;11.96;64.75
60583;BME280;46415;47.536;19.066;2023-04-19T00:37:34;-18551.63;;;11.86;66.91
60583;BME280;46415;47.536;19.066;2023-04-19T00:40:38;-18548.75;;;11.76;66.32
60583;BME280;46415;47.536;19.066;2023-04-19T00:43:41;-18545.31;;;11.63;67.61
60583;BME280;46415;47.536;19.066;2023-04-19T00:46:44;-18541.62;;;11.50;69.37
60583;BME280;46415;47.536;19.066;2023-04-19T00:49:47;-18537.81;;;11.35;66.13
60583;BME280;46415;47.536;19.066;2023-04-19T00:52:52;-18534.78;;;11.24;70.62
60583;BME280;46415;47.536;19.066;2023-04-19T00:55:56;-18531.91;;;11.14;67.41
60583;BME280;46415;47.536;19.066;2023-04-19T00:59:02;-18530.00;;;11.07;69.09
60583;BME280;46415;47.536;19.066;2023-04-19T01:02:05;-18527.41;;;10.97;67.30
60583;BME280;46415;47.536;19.066;2023-04-19T01:05:09;-18526.44;;;10.93;65.38
60583;BME280;46415;47.536;19.066;2023-04-19T01:08:14;-18525.06;;;10.88;70.26
60583;BME280;46415;47.536;19.066;2023-04-19T01:11:17;-18523.56;;;10.83;70.11
60583;BME280;46415;47.536;19.066;2023-04-19T01:14:20;-18524.81;;;10.87;66.71
60583;BME280;46415;47.536;19.066;2023-04-19T01:17:23;-18523.72;;;10.83;68.73
60583;BME280;46415;47.536;19.066;2023-04-19T01:20:27;-18524.25;;;10.85;67.34
60583;BME280;46415;47.536;19.066;2023-04-19T01:23:30;-18525.06;;;10.88;68.71
60583;BME280;46415;47.536;19.066;2023-04-19T01:26:32;-18526.16;;;10.92;69.01
60583;BME280;46415;47.536;19.066;2023-04-19T01:29:37;-18529.31;;;11.04;66.24
60583;BME280;46415;47.536;19.066;2023-04-19T01:32:39;-18529.03;;;11.03;66.33
60583;BME280;46415;47.536;19.066;2023-04-19T01:35:42;-18528.63;;;11.01;65.56
60583;BME280;46415;47.536;19.066;2023-04-19T01:38:48;-18529.59;;;11.05;63.96
60583;BME280;46415;47.536;19.066;2023-04-19T01:41:51;-18529.47;;;11.04;66.30
60583;BME280;46415;47.536;19.066;2023-04-19T01:44:54;-18529.31;;;11.04;65.88
60583;BME280;46415;47.536;19.066;2023-04-19T01:47:57;-18530.69;;;11.09;65.86
60583;BME280;46415;47.536;19.066;2023-04-19T01:51:01;-18529.72;;;11.05;66.15
60583;BME280;46415;47.536;19.066;2023-04-19T01:54:04;-18528.50;;;11.01;68.14
60583;BME280;46415;47.536;19.066;2023-04-19T01:57:06;-18527.81;;;10.98;68.01
60583;BME280;46415;47.536;19.066;2023-04-19T02:00:12;-18530.16;;;11.07;67.13
60583;BME280;46415;47.536;19.066;2023-04-19T02:03:16;-18531.78;;;11.13;66.83
60583;BME280;46415;47.536;19.066;2023-04-19T02:06:19;-18533.56;;;11.20;66.90
60583;BME280;46415;47.536;19.066;2023-04-19T02:09:24;-18535.34;;;11.26;68.44
60583;BME280;46415;47.536;19.066;2023-04-19T02:12:28;-18535.34;;;11.26;69.93
60583;BME280;46415;47.536;19.066;2023-04-19T02:15:32;-18536.16;;;11.29;68.99
60583;BME280;46415;47.536;19.066;2023-04-19T02:18:35;-18536.72;;;11.31;70.19
60583;BME280;46415;47.536;19.066;2023-04-19T02:21:42;-18536.44;;;11.30;71.36
60583;BME280;46415;47.536;19.066;2023-04-19T02:24:45;-18535.47;;;11.27;71.69
60583;BME280;46415;47.536;19.066;2023-04-19T02:27:49;-18535.47;;;11.27;72.55
60583;BME280;46415;47.536;19.066;2023-04-19T02:30:52;-18535.75;;;11.28;72.20
60583;BME280;46415;47.536;19.066;2023-04-19T02:33:55;-18535.75;;;11.28;73.12
60583;BME280;46415;47.536;19.066;2023-04-19T02:36:58;-18536.31;;;11.30;73.85
60583;BME280;46415;47.536;19.066;2023-04-19T02:40:03;-18535.75;;;11.28;74.30
60583;BME280;46415;47.536;19.066;2023-04-19T02:43:07;-18535.47;;;11.27;75.44
60583;BME280;46415;47.536;19.066;2023-04-19T02:46:09;-18532.19;;;11.15;77.70
60583;BME280;46415;47.536;19.066;2023-04-19T02:49:13;-18528.63;;;11.01;78.48
60583;BME280;46415;47.536;19.066;2023-04-19T02:52:15;-18525.50;;;10.90;80.09
60583;BME280;46415;47.536;19.066;2023-04-19T02:55:18;-18524.38;;;10.86;81.69
60583;BME280;46415;47.536;19.066;2023-04-19T02:58:22;-18522.62;;;10.79;83.12
60583;BME280;46415;47.536;19.066;2023-04-19T03:01:26;-18517.13;;;10.59;84.69
60583;BME280;46415;47.536;19.066;2023-04-19T03:04:28;-18518.50;;;10.64;85.59
60583;BME280;46415;47.536;19.066;2023-04-19T03:07:33;-18518.78;;;10.65;85.81
60583;BME280;46415;47.536;19.066;2023-04-19T03:10:35;-18515.78;;;10.54;88.11
60583;BME280;46415;47.536;19.066;2023-04-19T03:13:38;-18514.53;;;10.49;89.27
60583;BME280;46415;47.536;19.066;2023-04-19T03:16:42;-18512.47;;;10.42;91.40
60583;BME280;46415;47.536;19.066;2023-04-19T03:19:45;-18510.00;;;10.33;91.55
60583;BME280;46415;47.536;19.066;2023-04-19T03:22:48;-18507.13;;;10.22;92.34
60583;BME280;46415;47.536;19.066;2023-04-19T03:25:51;-18505.78;;;10.17;92.77
60583;BME280;46415;47.536;19.066;2023-04-19T03:28:54;-18504.53;;;10.12;92.78
60583;BME280;46415;47.536;19.066;2023-04-19T03:31:57;-18504.41;;;10.12;92.61
60583;BME280;46415;47.536;19.066;2023-04-19T03:35:01;-18503.16;;;10.07;93.77
60583;BME280;46415;47.536;19.066;2023-04-19T03:38:04;-18500.44;;;9.97;94.15
60583;BME280;46415;47.536;19.066;2023-04-19T03:41:17;-18497.53;;;9.87;94.63
60583;BME280;46415;47.536;19.066;2023-04-19T03:44:21;-18496.03;;;9.81;95.47
60583;BME280;46415;47.536;19.066;2023-04-19T03:47:24;-18496.72;;;9.83;95.11
60583;BME280;46415;47.536;19.066;2023-04-19T03:50:28;-18495.75;;;9.80;95.46
60583;BME280;46415;47.536;19.066;2023-04-19T03:53:31;-18495.06;;;9.77;96.28
60583;BME280;46415;47.536;19.066;2023-04-19T03:56:34;-18496.84;;;9.84;95.65
60583;BME280;46415;47.536;19.066;2023-04-19T03:59:37;-18494.81;;;9.76;96.35
60583;BME280;46415;47.536;19.066;2023-04-19T04:02:40;-18494.66;;;9.76;96.21
60583;BME280;46415;47.536;19.066;2023-04-19T04:05:45;-18492.19;;;9.67;96.14
60583;BME280;46415;47.536;19.066;2023-04-19T04:08:48;-18491.78;;;9.65;95.83
60583;BME280;46415;47.536;19.066;2023-04-19T04:11:50;-18492.63;;;9.68;93.97
60583;BME280;46415;47.536;19.066;2023-04-19T04:14:53;-18493.44;;;9.71;93.77
60583;BME280;46415;47.536;19.066;2023-04-19T04:17:57;-18495.63;;;9.79;92.29
60583;BME280;46415;47.536;19.066;2023-04-19T04:21:00;-18495.50;;;9.79;93.13
60583;BME280;46415;47.536;19.066;2023-04-19T04:24:06;-18497.69;;;9.87;92.17
60583;BME280;46415;47.536;19.066;2023-04-19T04:27:10;-18499.06;;;9.92;91.46
60583;BME280;46415;47.536;19.066;2023-04-19T04:30:13;-18500.16;;;9.96;92.00
60583;BME280;46415;47.536;19.066;2023-04-19T04:33:16;-18504.53;;;10.12;90.59
60583;BME280;46415;47.536;19.066;2023-04-19T04:36:20;-18506.44;;;10.19;90.78
60583;BME280;46415;47.536;19.066;2023-04-19T04:39:24;-18510.28;;;10.34;87.34
60583;BME280;46415;47.536;19.066;2023-04-19T04:42:27;-18512.22;;;10.41;87.49
60583;BME280;46415;47.536;19.066;2023-04-19T04:45:32;-18513.72;;;10.46;87.46
60583;BME280;46415;47.536;19.066;2023-04-19T04:48:36;-18515.91;;;10.54;85.77
60583;BME280;46415;47.536;19.066;2023-04-19T04:51:39;-18516.03;;;10.55;84.12
60583;BME280;46415;47.536;19.066;2023-04-19T04:54:43;-18517.41;;;10.60;84.21
60583;BME280;46415;47.536;19.066;2023-04-19T04:57:49;-18518.78;;;10.65;82.43
60583;BME280;46415;47.536;19.066;2023-04-19T05:00:53;-18520.00;;;10.70;81.67
60583;BME280;46415;47.536;19.066;2023-04-19T05:03:56;-18523.16;;;10.81;81.49
60583;BME280;46415;47.536;19.066;2023-04-19T05:06:59;-18523.97;;;10.84;80.44
60583;BME280;46415;47.536;19.066;2023-04-19T05:10:03;-18526.72;;;10.94;79.71
60583;BME280;46415;47.536;19.066;2023-04-19T05:13:09;-18528.78;;;11.02;79.88
60583;BME280;46415;47.536;19.066;2023-04-19T05:16:13;-18531.66;;;11.13;80.31
60583;BME280;46415;47.536;19.066;2023-04-19T05:19:17;-18534.66;;;11.24;79.00
60583;BME280;46415;47.536;19.066;2023-04-19T05:22:20;-18538.06;;;11.36;76.85
60583;BME280;46415;47.536;19.066;2023-04-19T05:25:24;-18544.50;;;11.60;77.02
60583;BME280;46415;47.536;19.066;2023-04-19T05:28:27;-18551.50;;;11.86;74.37
60583;BME280;46415;47.536;19.066;2023-04-19T05:31:32;-18560.25;;;12.18;71.71
60583;BME280;46415;47.536;19.066;2023-04-19T05:34:36;-18567.63;;;12.46;69.95
60583;BME280;46415;47.536;19.066;2023-04-19T05:37:45;-18571.59;;;12.60;69.97
60583;BME280;46415;47.536;19.066;2023-04-19T05:40:48;-18578.28;;;12.85;68.49
60583;BME280;46415;47.536;19.066;2023-04-19T05:43:54;-18585.53;;;13.12;66.71
60583;BME280;46415;47.536;19.066;2023-04-19T05:46:58;-18594.13;;;13.44;65.02
60583;BME280;46415;47.536;19.066;2023-04-19T05:50:04;-18600.69;;;13.68;63.44
60583;BME280;46415;47.536;19.066;2023-04-19T05:53:07;-18601.38;;;13.71;63.10
60583;BME280;46415;47.536;19.066;2023-04-19T05:56:10;-18598.38;;;13.60;62.41
60583;BME280;46415;47.536;19.066;2023-04-19T05:59:13;-18599.34;;;13.63;63.89
60583;BME280;46415;47.536;19.066;2023-04-19T06:02:17;-18604.09;;;13.81;63.44
60583;BME280;46415;47.536;19.066;2023-04-19T06:05:21;-18610.81;;;14.06;60.37
60583;BME280;46415;47.536;19.066;2023-04-19T06:08:24;-18614.47;;;14.19;62.23
60583;BME280;46415;47.536;19.066;2023-04-19T06:11:29;-18618.03;;;14.32;60.26
60583;BME280;46415;47.536;19.066;2023-04-19T06:14:48;-18619.53;;;14.38;61.87
60583;BME280;46415;47.536;19.066;2023-04-19T06:17:51;-18624.31;;;14.56;62.64
60583;BME280;46415;47.536;19.066;2023-04-19T06:20:54;-18627.03;;;14.66;61.24
60583;BME280;46415;47.536;19.066;2023-04-19T06:23:57;-18633.03;;;14.88;61.56
60583;BME280;46415;47.536;19.066;2023-04-19T06:27:00;-18635.09;;;14.96;62.04
60583;BME280;46415;47.536;19.066;2023-04-19T06:30:04;-18636.87;;;15.02;62.13
60583;BME280;46415;47.536;19.066;2023-04-19T06:33:07;-18643.00;;;15.25;63.28
60583;BME280;46415;47.536;19.066;2023-04-19T06:36:10;-18647.50;;;15.42;59.77
60583;BME280;46415;47.536;19.066;2023-04-19T06:39:13;-18656.78;;;15.76;58.46
60583;BME280;46415;47.536;19.066;2023-04-19T06:42:16;-18658.41;;;15.82;56.40
60583;BME280;46415;47.536;19.066;2023-04-19T06:45:21;-18668.22;;;16.19;56.23
60583;BME280;46415;47.536;19.066;2023-04-19T06:48:24;-18669.31;;;16.23;56.40
60583;BME280;46415;47.536;19.066;2023-04-19T06:51:27;-18673.94;;;16.40;53.99
60583;BME280;46415;47.536;19.066;2023-04-19T06:54:30;-18676.53;;;16.50;53.11
60583;BME280;46415;47.536;19.066;2023-04-19T06:57:33;-18679.69;;;16.61;51.02
60583;BME280;46415;47.536;19.066;2023-04-19T07:00:36;-18679.41;;;16.60;49.64
60583;BME280;46415;47.536;19.066;2023-04-19T07:03:39;-18677.22;;;16.52;49.96
60583;BME280;46415;47.536;19.066;2023-04-19T07:06:47;-18683.22;;;16.74;49.81
60583;BME280;46415;47.536;19.066;2023-04-19T07:09:50;-18685.25;;;16.82;49.86
60583;BME280;46415;47.536;19.066;2023-04-19T07:12:54;-18689.75;;;16.99;49.01
60583;BME280;46415;47.536;19.066;2023-04-19T07:15:57;-18691.38;;;17.05;46.71
60583;BME280;46415;47.536;19.066;2023-04-19T07:19:00;-18689.75;;;16.99;46.97
60583;BME280;46415;47.536;19.066;2023-04-19T07:22:03;-18689.22;;;16.97;47.10
60583;BME280;46415;47.536;19.066;2023-04-19T07:25:08;-18688.66;;;16.95;45.41
60583;BME280;46415;47.536;19.066;2023-04-19T07:28:11;-18696.28;;;17.23;46.04
60583;BME280;46415;47.536;19.066;2023-04-19T07:31:15;-18696.28;;;17.23;45.07
60583;BME280;46415;47.536;19.066;2023-04-19T07:34:20;-18690.56;;;17.02;43.90
60583;BME280;46415;47.536;19.066;2023-04-19T07:37:23;-18693.97;;;17.14;43.57
60583;BME280;46415;47.536;19.066;2023-04-19T07:40:26;-18692.47;;;17.09;44.69
60583;BME280;46415;47.536;19.066;2023-04-19T07:43:29;-18694.09;;;17.15;44.08
60583;BME280;46415;47.536;19.066;2023-04-19T07:46:32;-18697.91;;;17.29;45.40
60583;BME280;46415;47.536;19.066;2023-04-19T07:49:35;-18696.69;;;17.25;45.35
60583;BME280;46415;47.536;19.066;2023-04-19T07:52:38;-18700.22;;;17.38;43.66
60583;BME280;46415;47.536;19.066;2023-04-19T07:55:41;-18696.56;;;17.24;42.64
60583;BME280;46415;47.536;19.066;2023-04-19T07:58:44;-18691.13;;;17.04;44.53
60583;BME280;46415;47.536;19.066;2023-04-19T08:01:55;-18696.56;;;17.24;44.68
60583;BME280;46415;47.536;19.066;2023-04-19T08:04:58;-18701.47;;;17.42;44.10
60583;BME280;46415;47.536;19.066;2023-04-19T08:08:04;-18704.72;;;17.54;42.85
60583;BME280;46415;47.536;19.066;2023-04-19T08:11:06;-18706.37;;;17.61;42.48
60583;BME280;46415;47.536;19.066;2023-04-19T08:14:09;-18708.53;;;17.69;42.33
60583;BME280;46415;47.536;19.066;2023-04-19T08:17:33;-18696.28;;;17.23;41.44
60583;BME280;46415;47.536;19.066;2023-04-19T08:20:45;-18701.72;;;17.43;41.17
60583;BME280;46415;47.536;19.066;2023-04-19T08:23:49;-18707.72;;;17.66;39.66
60583;BME280;46415;47.536;19.066;2023-04-19T08:26:55;-18713.31;;;17.86;40.34
60583;BME280;46415;47.536;19.066;2023-04-19T08:30:02;-18725.69;;;18.32;40.78
60583;BME280;46415;47.536;19.066;2023-04-19T08:33:05;-18746.75;;;19.11;38.81
60583;BME280;46415;47.536;19.066;2023-04-19T08:36:08;-18754.78;;;19.41;35.56
60583;BME280;46415;47.536;19.066;2023-04-19T08:39:11;-18749.88;;;19.23;35.51
60583;BME280;46415;47.536;19.066;2023-04-19T08:42:31;-18744.44;;;19.02;35.55
60583;BME280;46415;47.536;19.066;2023-04-19T08:45:38;-18746.75;;;19.11;35.82
60583;BME280;46415;47.536;19.066;2023-04-19T08:48:42;-18735.47;;;18.69;36.03
60583;BME280;46415;47.536;19.066;2023-04-19T08:51:48;-18741.44;;;18.91;36.47
60583;BME280;46415;47.536;19.066;2023-04-19T08:54:53;-18737.91;;;18.78;35.04
60583;BME280;46415;47.536;19.066;2023-04-19T08:57:57;-18735.19;;;18.68;36.33
60583;BME280;46415;47.536;19.066;2023-04-19T09:01:03;-18747.56;;;19.14;36.09
60583;BME280;46415;47.536;19.066;2023-04-19T09:04:06;-18738.87;;;18.82;37.34
60583;BME280;46415;47.536;19.066;2023-04-19T09:07:26;-18728.53;;;18.43;38.83
60583;BME280;46415;47.536;19.066;2023-04-19T09:10:29;-18717.09;;;18.01;40.03
60583;BME280;46415;47.536;19.066;2023-04-19T09:13:32;-18709.91;;;17.74;40.39
60583;BME280;46415;47.536;19.066;2023-04-19T09:16:38;-18717.25;;;18.01;42.24
60583;BME280;46415;47.536;19.066;2023-04-19T09:19:48;-18722.00;;;18.19;41.58
60583;BME280;46415;47.536;19.066;2023-04-19T09:23:05;-18722.41;;;18.20;42.50
60583;BME280;46415;47.536;19.066;2023-04-19T09:26:12;-18734.38;;;18.65;42.87
60583;BME280;46415;47.536;19.066;2023-04-19T09:29:18;-18742.28;;;18.94;40.38
60583;BME280;46415;47.536;19.066;2023-04-19T09:32:22;-18734.38;;;18.65;40.56
60583;BME280;46415;47.536;19.066;2023-04-19T09:35:43;-18728.25;;;18.42;41.72
60583;BME280;46415;47.536;19.066;2023-04-19T09:38:48;-18724.31;;;18.27;42.47
60583;BME280;46415;47.536;19.066;2023-04-19T09:41:51;-18721.06;;;18.15;43.86
60583;BME280;46415;47.536;19.066;2023-04-19T09:44:56;-18714.94;;;17.92;44.49
60583;BME280;46415;47.536;19.066;2023-04-19T09:48:04;-18721.31;;;18.16;44.95
60583;BME280;46415;47.536;19.066;2023-04-19T09:51:09;-18724.59;;;18.28;43.85
60583;BME280;46415;47.536;19.066;2023-04-19T09:54:17;-18722.97;;;18.22;43.89
60583;BME280;46415;47.536;19.066;2023-04-19T09:57:20;-18735.87;;;18.70;42.84
60583;BME280;46415;47.536;19.066;2023-04-19T10:00:23;-18733.28;;;18.61;41.38
60583;BME280;46415;47.536;19.066;2023-04-19T10:03:28;-18740.09;;;18.86;39.93
60583;BME280;46415;47.536;19.066;2023-04-19T10:06:34;-18736.84;;;18.74;40.06
60583;BME280;46415;47.536;19.066;2023-04-19T10:09:57;-18741.88;;;18.93;40.39
60583;BME280;46415;47.536;19.066;2023-04-19T10:13:20;-18755.31;;;19.43;40.43
60583;BME280;46415;47.536;19.066;2023-04-19T10:16:47;-18754.78;;;19.41;40.25
60583;BME280;46415;47.536;19.066;2023-04-19T10:19:58;-18757.22;;;19.50;41.68
60583;BME280;46415;47.536;19.066;2023-04-19T10:23:06;-18761.69;;;19.67;40.34
60583;BME280;46415;47.536;19.066;2023-04-19T10:26:08;-18760.47;;;19.62;41.27
60583;BME280;46415;47.536;19.066;2023-04-19T10:29:12;-18762.25;;;19.69;42.51
60583;BME280;46415;47.536;19.066;2023-04-19T10:32:15;-18757.09;;;19.49;43.69
60583;BME280;46415;47.536;19.066;2023-04-19T10:35:21;-18750.28;;;19.24;43.52
60583;BME280;46415;47.536;19.066;2023-04-19T10:38:47;-18733.28;;;18.61;44.65
60583;BME280;46415;47.536;19.066;2023-04-19T10:41:57;-18713.03;;;17.85;45.46
60583;BME280;46415;47.536;19.066;2023-04-19T10:45:32;-18701.31;;;17.42;45.96
60583;BME280;46415;47.536;19.066;2023-04-19T10:48:38;-18701.47;;;17.42;45.28
60583;BME280;46415;47.536;19.066;2023-04-19T10:51:49;-18702.94;;;17.48;43.35
60583;BME280;46415;47.536;19.066;2023-04-19T10:54:55;-18712.06;;;17.82;43.11
60583;BME280;46415;47.536;19.066;2023-04-19T10:58:05;-18712.91;;;17.85;43.36
60583;BME280;46415;47.536;19.066;2023-04-19T11:07:40;-18708.53;;;17.69;43.17
60583;BME280;46415;47.536;19.066;2023-04-19T11:10:43;-18715.06;;;17.93;42.00
60583;BME280;46415;47.536;19.066;2023-04-19T11:13:47;-18723.22;;;18.23;41.50
60583;BME280;46415;47.536;19.066;2023-04-19T11:16:50;-18731.25;;;18.53;40.75
60583;BME280;46415;47.536;19.066;2023-04-19T11:20:06;-18731.94;;;18.56;40.45
60583;BME280;46415;47.536;19.066;2023-04-19T11:23:17;-18728.41;;;18.43;41.43
60583;BME280;46415;47.536;19.066;2023-04-19T11:26:22;-18730.97;;;18.52;40.03
60583;BME280;46415;47.536;19.066;2023-04-19T11:29:25;-18724.72;;;18.29;39.58
60583;BME280;46415;47.536;19.066;2023-04-19T11:32:30;-18721.88;;;18.18;41.89
60583;BME280;46415;47.536;19.066;2023-04-19T11:35:34;-18719.84;;;18.11;41.54
60583;BME280;46415;47.536;19.066;2023-04-19T11:38:37;-18714.38;;;17.90;44.08
60583;BME280;46415;47.536;19.066;2023-04-19T11:41:40;-18706.09;;;17.60;48.13
60583;BME280;46415;47.536;19.066;2023-04-19T11:44:48;-18704.44;;;17.53;48.52
60583;BME280;46415;47.536;19.066;2023-04-19T11:47:50;-18691.25;;;17.04;50.23
60583;BME280;46415;47.536;19.066;2023-04-19T11:50:57;-18690.84;;;17.03;50.09
60583;BME280;46415;47.536;19.066;2023-04-19T11:54:00;-18691.38;;;17.05;49.62
60583;BME280;46415;47.536;19.066;2023-04-19T11:57:07;-18698.06;;;17.30;50.22
60583;BME280;46415;47.536;19.066;2023-04-19T12:00:10;-18691.53;;;17.05;48.99
60583;BME280;46415;47.536;19.066;2023-04-19T12:03:14;-18691.38;;;17.05;48.19
60583;BME280;46415;47.536;19.066;2023-04-19T12:06:27;-18691.25;;;17.04;47.00
60583;BME280;46415;47.536;19.066;2023-04-19T12:09:34;-18692.34;;;17.08;47.97
60583;BME280;46415;47.536;19.066;2023-04-19T12:12:38;-18701.31;;;17.42;48.22
60583;BME280;46415;47.536;19.066;2023-04-19T12:15:42;-18693.84;;;17.14;51.67
60583;BME280;46415;47.536;19.066;2023-04-19T12:21:50;-18694.25;;;17.16;53.05
60583;BME280;46415;47.536;19.066;2023-04-19T12:24:53;-18690.16;;;17.00;52.91
60583;BME280;46415;47.536;19.066;2023-04-19T12:27:57;-18682.53;;;16.72;55.61
60583;BME280;46415;47.536;19.066;2023-04-19T12:31:00;-18682.66;;;16.72;56.11
60583;BME280;46415;47.536;19.066;2023-04-19T12:34:03;-18682.13;;;16.70;55.64
60583;BME280;46415;47.536;19.066;2023-04-19T12:37:06;-18683.22;;;16.74;56.45
60583;BME280;46415;47.536;19.066;2023-04-19T12:40:09;-18688.94;;;16.96;57.13
60583;BME280;46415;47.536;19.066;2023-04-19T12:43:13;-18692.47;;;17.09;57.30
60583;BME280;46415;47.536;19.066;2023-04-19T12:46:15;-18687.31;;;16.90;59.80
60583;BME280;46415;47.536;19.066;2023-04-19T12:49:18;-18667.94;;;16.18;62.34
60583;BME280;46415;47.536;19.066;2023-04-19T12:52:22;-18659.09;;;15.85;67.74
60583;BME280;46415;47.536;19.066;2023-04-19T12:55:25;-18658.69;;;15.83;67.91
60583;BME280;46415;47.536;19.066;2023-04-19T12:58:27;-18664.13;;;16.04;63.43
60583;BME280;46415;47.536;19.066;2023-04-19T13:01:31;-18668.63;;;16.20;61.71
60583;BME280;46415;47.536;19.066;2023-04-19T13:04:35;-18676.41;;;16.49;61.25
60583;BME280;46415;47.536;19.066;2023-04-19T13:07:38;-18681.03;;;16.66;60.51
60583;BME280;46415;47.536;19.066;2023-04-19T13:10:41;-18690.56;;;17.02;58.93
60583;BME280;46415;47.536;19.066;2023-04-19T13:13:44;-18699.69;;;17.36;58.06
60583;BME280;46415;47.536;19.066;2023-04-19T13:16:47;-18711.00;;;17.78;56.92
60583;BME280;46415;47.536;19.066;2023-04-19T13:19:50;-18711.25;;;17.79;54.92
60583;BME280;46415;47.536;19.066;2023-04-19T13:22:53;-18714.25;;;17.90;54.75
60583;BME280;46415;47.536;19.066;2023-04-19T13:25:55;-18718.47;;;18.06;54.12
60583;BME280;46415;47.536;19.066;2023-04-19T13:28:59;-18726.50;;;18.35;52.83
60583;BME280;46415;47.536;19.066;2023-04-19T13:32:02;-18729.06;;;18.45;51.38
60583;BME280;46415;47.536;19.066;2023-04-19T13:35:09;-18733.72;;;18.62;49.97
60583;BME280;46415;47.536;19.066;2023-04-19T13:38:12;-18742.00;;;18.93;49.01
60583;BME280;46415;47.536;19.066;2023-04-19T13:41:15;-18739.56;;;18.84;48.61
60583;BME280;46415;47.536;19.066;2023-04-19T13:44:18;-18733.56;;;18.62;51.20
60583;BME280;46415;47.536;19.066;2023-04-19T13:47:20;-18734.13;;;18.64;54.14
60583;BME280;46415;47.536;19.066;2023-04-19T13:50:23;-18725.13;;;18.30;55.58
60583;BME280;46415;47.536;19.066;2023-04-19T13:53:26;-18725.00;;;18.30;56.76
60583;BME280;46415;47.536;19.066;2023-04-19T13:56:30;-18729.50;;;18.47;55.96
60583;BME280;46415;47.536;19.066;2023-04-19T13:59:33;-18731.94;;;18.56;56.34
60583;BME280;46415;47.536;19.066;2023-04-19T14:02:36;-18734.53;;;18.65;56.47
60583;BME280;46415;47.536;19.066;2023-04-19T14:05:39;-18730.84;;;18.52;56.22
60583;BME280;46415;47.536;19.066;2023-04-19T14:08:42;-18740.62;;;18.88;56.47
60583;BME280;46415;47.536;19.066;2023-04-19T14:11:46;-18731.13;;;18.53;56.59
60583;BME280;46415;47.536;19.066;2023-04-19T14:14:50;-18724.84;;;18.29;56.44
60583;BME280;46415;47.536;19.066;2023-04-19T14:17:53;-18727.72;;;18.40;56.19
60583;BME280;46415;47.536;19.066;2023-04-19T14:20:55;-18729.34;;;18.46;55.46
60583;BME280;46415;47.536;19.066;2023-04-19T14:23:59;-18729.22;;;18.46;55.50
60583;BME280;46415;47.536;19.066;2023-04-19T14:27:01;-18737.50;;;18.77;55.14
60583;BME280;46415;47.536;19.066;2023-04-19T14:30:13;-18735.59;;;18.69;53.93
60583;BME280;46415;47.536;19.066;2023-04-19T14:33:16;-18737.66;;;18.77;54.82
60583;BME280;46415;47.536;19.066;2023-04-19T14:36:19;-18743.09;;;18.97;52.63
60583;BME280;46415;47.536;19.066;2023-04-19T14:39:21;-18749.34;;;19.21;52.98
60583;BME280;46415;47.536;19.066;2023-04-19T14:42:24;-18754.50;;;19.40;51.11
60583;BME280;46415;47.536;19.066;2023-04-19T14:45:27;-18780.16;;;20.35;47.81
60583;BME280;46415;47.536;19.066;2023-04-19T14:48:30;-18815.16;;;21.66;45.69
60583;BME280;46415;47.536;19.066;2023-04-19T14:51:33;-18844.16;;;22.74;42.28
60583;BME280;46415;47.536;19.066;2023-04-19T14:54:36;-18845.94;;;22.81;41.41
60583;BME280;46415;47.536;19.066;2023-04-19T14:57:39;-18861.09;;;23.38;40.35
60583;BME280;46415;47.536;19.066;2023-04-19T15:00:43;-18861.22;;;23.38;39.84
60583;BME280;46415;47.536;19.066;2023-04-19T15:03:46;-18871.63;;;23.77;38.66
60583;BME280;46415;47.536;19.066;2023-04-19T15:06:50;-18888.13;;;24.39;37.72
60583;BME280;46415;47.536;19.066;2023-04-19T15:09:53;-18899.34;;;24.81;37.66
60583;BME280;46415;47.536;19.066;2023-04-19T15:12:56;-18913.81;;;25.35;36.00
60583;BME280;46415;47.536;19.066;2023-04-19T15:15:59;-18918.94;;;25.54;35.28
60583;BME280;46415;47.536;19.066;2023-04-19T15:19:05;-18933.53;;;26.09;33.92
60583;BME280;46415;47.536;19.066;2023-04-19T15:22:09;-18912.19;;;25.29;35.02
60583;BME280;46415;47.536;19.066;2023-04-19T15:25:12;-18941.62;;;26.39;33.46
60583;BME280;46415;47.536;19.066;2023-04-19T15:28:15;-18943.78;;;26.48;33.33
60583;BME280;46415;47.536;19.066;2023-04-19T15:31:18;-18939.59;;;26.32;33.72
60583;BME280;46415;47.536;19.066;2023-04-19T15:34:21;-18867.03;;;23.60;37.22
60583;BME280;46415;47.536;19.066;2023-04-19T15:37:24;-18806.75;;;21.35;41.91
60583;BME280;46415;47.536;19.066;2023-04-19T15:40:27;-18786.81;;;20.60;43.69
60583;BME280;46415;47.536;19.066;2023-04-19T15:43:31;-18763.75;;;19.74;45.73
60583;BME280;46415;47.536;19.066;2023-04-19T15:46:34;-18747.56;;;19.14;46.23
60583;BME280;46415;47.536;19.066;2023-04-19T15:49:37;-18760.34;;;19.62;45.39
60583;BME280;46415;47.536;19.066;2023-04-19T15:52:42;-18761.84;;;19.67;44.55
60583;BME280;46415;47.536;19.066;2023-04-19T15:55:45;-18763.06;;;19.72;44.48
60583;BME280;46415;47.536;19.066;2023-04-19T15:58:49;-18793.59;;;20.86;41.45
60583;BME280;46415;47.536;19.066;2023-04-19T16:01:52;-18829.13;;;22.18;38.28